Bowman, North Dakota
Current Conditions -  °F | °C
As of 1:53 PM on Friday 24 Oct 2014 (Local Time) from KHEI Reporting Station
Overcast Overcast  
Wind Chill: 64°   Ceiling: 11000
Heat Index: 64°   Visibility: 10mi
Dew Point: 33°   Wind: 15mph
Humidity: 31%   Direction: 290°WNW
Pressure: 30"   Gusts: NA
Location:  46.18°N, 103.39°W
Report Text: KHEI 241953Z AUTO 29013KT 10SM OVC110 18/01 A3000 RMK AO2 SLP160 T01780006
Loading
Personal Weather Stations






























Interactive Weather Map
Tropical Storm Tracking
New forecast layout! Learn more

10-Day Weather Forecast

Advertisements
Track Severe Weather on mobile